sensor_id;sensor_type;location;lat;lon;timestamp;pressure;altitude;pressure_sealevel;temperature;humidity
23223;BME280;11780;13.904;100.620;2023-03-14T00:00:24;101221.34;;;29.62;56.29
23223;BME280;11780;13.904;100.620;2023-03-14T00:02:54;101222.47;;;29.61;56.41
23223;BME280;11780;13.904;100.620;2023-03-14T00:05:24;101233.81;;;29.60;56.49
23223;BME280;11780;13.904;100.620;2023-03-14T00:07:54;101239.53;;;29.63;56.44
23223;BME280;11780;13.904;100.620;2023-03-14T00:10:24;101236.25;;;29.61;56.63
23223;BME280;11780;13.904;100.620;2023-03-14T00:12:54;101245.34;;;29.62;56.20
23223;BME280;11780;13.904;100.620;2023-03-14T00:15:24;101250.75;;;29.67;56.28
23223;BME280;11780;13.904;100.620;2023-03-14T00:17:54;101252.00;;;29.61;55.81
23223;BME280;11780;13.904;100.620;2023-03-14T00:20:24;101253.03;;;29.65;55.97
23223;BME280;11780;13.904;100.620;2023-03-14T00:22:54;101252.50;;;29.63;55.73
23223;BME280;11780;13.904;100.620;2023-03-14T00:25:24;101264.66;;;29.62;55.87
23223;BME280;11780;13.904;100.620;2023-03-14T00:27:54;101270.97;;;29.62;55.78
23223;BME280;11780;13.904;100.620;2023-03-14T00:30:24;101277.00;;;29.65;55.95
23223;BME280;11780;13.904;100.620;2023-03-14T00:32:54;101269.56;;;29.65;55.53
23223;BME280;11780;13.904;100.620;2023-03-14T00:35:24;101282.84;;;29.63;55.82
23223;BME280;11780;13.904;100.620;2023-03-14T00:37:54;101287.75;;;29.66;55.50
23223;BME280;11780;13.904;100.620;2023-03-14T00:40:24;101281.72;;;29.64;55.62
23223;BME280;11780;13.904;100.620;2023-03-14T00:42:54;101289.47;;;29.62;55.45
23223;BME280;11780;13.904;100.620;2023-03-14T00:45:26;101289.16;;;29.63;55.54
23223;BME280;11780;13.904;100.620;2023-03-14T00:47:56;101289.16;;;29.63;55.57
23223;BME280;11780;13.904;100.620;2023-03-14T00:50:26;101297.13;;;29.65;55.64
23223;BME280;11780;13.904;100.620;2023-03-14T00:52:55;101310.28;;;29.68;55.36
23223;BME280;11780;13.904;100.620;2023-03-14T00:55:26;101320.59;;;29.62;55.55
23223;BME280;11780;13.904;100.620;2023-03-14T00:57:56;101318.69;;;29.63;55.30
23223;BME280;11780;13.904;100.620;2023-03-14T01:00:26;101326.34;;;29.66;55.66
23223;BME280;11780;13.904;100.620;2023-03-14T01:02:56;101326.25;;;29.71;55.30
23223;BME280;11780;13.904;100.620;2023-03-14T01:05:27;101334.00;;;29.69;55.39
23223;BME280;11780;13.904;100.620;2023-03-14T01:07:57;101336.75;;;29.69;55.36
23223;BME280;11780;13.904;100.620;2023-03-14T01:10:27;101327.38;;;29.70;55.47
23223;BME280;11780;13.904;100.620;2023-03-14T01:12:57;101334.72;;;29.75;55.47
23223;BME280;11780;13.904;100.620;2023-03-14T01:15:28;101343.00;;;29.75;55.40
23223;BME280;11780;13.904;100.620;2023-03-14T01:17:58;101350.25;;;29.71;55.61
23223;BME280;11780;13.904;100.620;2023-03-14T01:20:28;101341.16;;;29.70;55.47
23223;BME280;11780;13.904;100.620;2023-03-14T01:22:59;101348.63;;;29.70;55.71
23223;BME280;11780;13.904;100.620;2023-03-14T01:25:28;101349.72;;;29.69;55.53
23223;BME280;11780;13.904;100.620;2023-03-14T01:27:59;101358.81;;;29.69;55.55
23223;BME280;11780;13.904;100.620;2023-03-14T01:30:30;101358.00;;;29.69;55.17
23223;BME280;11780;13.904;100.620;2023-03-14T01:33:00;101364.03;;;29.71;55.56
23223;BME280;11780;13.904;100.620;2023-03-14T01:35:30;101365.97;;;29.70;55.43
23223;BME280;11780;13.904;100.620;2023-03-14T01:38:18;101367.59;;;29.71;55.52
23223;BME280;11780;13.904;100.620;2023-03-14T01:40:48;101370.06;;;29.73;55.70
23223;BME280;11780;13.904;100.620;2023-03-14T01:43:37;101377.22;;;29.74;55.61
23223;BME280;11780;13.904;100.620;2023-03-14T01:48:59;101371.09;;;29.77;55.63
23223;BME280;11780;13.904;100.620;2023-03-14T01:51:44;101371.94;;;29.77;55.49
23223;BME280;11780;13.904;100.620;2023-03-14T01:54:27;101377.97;;;29.80;55.57
23223;BME280;11780;13.904;100.620;2023-03-14T01:57:33;101376.84;;;29.81;55.86
23223;BME280;11780;13.904;100.620;2023-03-14T02:00:07;101386.75;;;29.82;55.82
23223;BME280;11780;13.904;100.620;2023-03-14T02:02:49;101384.50;;;29.84;55.68
23223;BME280;11780;13.904;100.620;2023-03-14T02:05:23;101384.28;;;29.80;55.24
23223;BME280;11780;13.904;100.620;2023-03-14T02:08:02;101384.50;;;29.84;55.28
23223;BME280;11780;13.904;100.620;2023-03-14T02:10:45;101378.50;;;29.82;55.37
23223;BME280;11780;13.904;100.620;2023-03-14T02:13:21;101385.31;;;29.84;55.24
23223;BME280;11780;13.904;100.620;2023-03-14T02:16:10;101389.41;;;29.87;55.09
23223;BME280;11780;13.904;100.620;2023-03-14T02:20:13;101389.41;;;29.87;54.88
23223;BME280;11780;13.904;100.620;2023-03-14T02:22:22;101393.00;;;29.87;54.96
23223;BME280;11780;13.904;100.620;2023-03-14T02:27:34;101402.59;;;29.90;54.72
23223;BME280;11780;13.904;100.620;2023-03-14T02:30:12;101400.44;;;29.87;54.66
23223;BME280;11780;13.904;100.620;2023-03-14T02:33:19;101400.44;;;29.87;54.80
23223;BME280;11780;13.904;100.620;2023-03-14T02:36:04;101406.16;;;29.90;55.10
23223;BME280;11780;13.904;100.620;2023-03-14T02:38:40;101405.69;;;29.88;54.82
23223;BME280;11780;13.904;100.620;2023-03-14T02:41:15;101408.13;;;29.90;54.77
23223;BME280;11780;13.904;100.620;2023-03-14T02:43:53;101408.66;;;29.92;54.57
23223;BME280;11780;13.904;100.620;2023-03-14T02:46:42;101400.38;;;29.92;54.03
23223;BME280;11780;13.904;100.620;2023-03-14T02:49:14;101401.19;;;29.92;54.65
23223;BME280;11780;13.904;100.620;2023-03-14T02:52:18;101402.00;;;29.93;54.72
23223;BME280;11780;13.904;100.620;2023-03-14T02:55:06;101388.78;;;29.95;54.81
23223;BME280;11780;13.904;100.620;2023-03-14T02:57:42;101389.84;;;29.94;54.47
23223;BME280;11780;13.904;100.620;2023-03-14T03:00:13;101393.44;;;29.95;55.44
23223;BME280;11780;13.904;100.620;2023-03-14T03:03:02;101386.81;;;29.96;54.62
23223;BME280;11780;13.904;100.620;2023-03-14T03:05:53;101387.66;;;29.96;54.43
23223;BME280;11780;13.904;100.620;2023-03-14T03:08:25;101392.84;;;29.98;54.63
23223;BME280;11780;13.904;100.620;2023-03-14T03:10:58;101392.84;;;29.98;54.30
23223;BME280;11780;13.904;100.620;2023-03-14T03:13:31;101389.78;;;29.99;54.23
23223;BME280;11780;13.904;100.620;2023-03-14T03:16:03;101397.25;;;29.99;54.21
23223;BME280;11780;13.904;100.620;2023-03-14T03:18:34;101389.78;;;29.99;53.94
23223;BME280;11780;13.904;100.620;2023-03-14T03:21:04;101388.16;;;29.98;54.29
23223;BME280;11780;13.904;100.620;2023-03-14T03:23:53;101385.91;;;30.00;54.04
23223;BME280;11780;13.904;100.620;2023-03-14T03:26:24;101384.25;;;29.99;54.05
23223;BME280;11780;13.904;100.620;2023-03-14T03:28:54;101371.00;;;30.01;54.42
23223;BME280;11780;13.904;100.620;2023-03-14T03:31:24;101368.22;;;30.01;54.52
23223;BME280;11780;13.904;100.620;2023-03-14T03:33:54;101363.84;;;30.00;54.40
23223;BME280;11780;13.904;100.620;2023-03-14T03:36:25;101353.31;;;30.02;54.60
23223;BME280;11780;13.904;100.620;2023-03-14T03:38:58;101356.91;;;30.03;54.27
23223;BME280;11780;13.904;100.620;2023-03-14T03:41:29;101358.84;;;30.02;54.46
23223;BME280;11780;13.904;100.620;2023-03-14T03:44:00;101352.72;;;30.05;54.16
23223;BME280;11780;13.904;100.620;2023-03-14T03:46:48;101347.53;;;30.04;54.27
23223;BME280;11780;13.904;100.620;2023-03-14T03:49:19;101339.72;;;30.06;53.98
23223;BME280;11780;13.904;100.620;2023-03-14T03:52:05;101340.56;;;30.06;53.79
23223;BME280;11780;13.904;100.620;2023-03-14T03:54:55;101335.06;;;30.06;53.70
23223;BME280;11780;13.904;100.620;2023-03-14T03:57:44;101331.97;;;30.08;53.55
23223;BME280;11780;13.904;100.620;2023-03-14T04:00:14;101324.81;;;30.07;53.64
23223;BME280;11780;13.904;100.620;2023-03-14T04:03:02;101320.94;;;30.08;53.66
23223;BME280;11780;13.904;100.620;2023-03-14T04:05:32;101329.72;;;30.10;53.71
23223;BME280;11780;13.904;100.620;2023-03-14T04:08:08;101327.28;;;30.08;53.86
23223;BME280;11780;13.904;100.620;2023-03-14T04:10:38;101315.94;;;30.10;53.82
23223;BME280;11780;13.904;100.620;2023-03-14T04:13:27;101314.81;;;30.11;53.83
23223;BME280;11780;13.904;100.620;2023-03-14T04:15:57;101309.81;;;30.13;54.02
23223;BME280;11780;13.904;100.620;2023-03-14T04:18:28;101303.97;;;30.15;53.76
23223;BME280;11780;13.904;100.620;2023-03-14T04:21:00;101295.72;;;30.15;53.65
23223;BME280;11780;13.904;100.620;2023-03-14T04:23:41;101295.41;;;30.16;53.63
23223;BME280;11780;13.904;100.620;2023-03-14T04:26:11;101292.66;;;30.16;53.32
23223;BME280;11780;13.904;100.620;2023-03-14T04:28:57;101276.63;;;30.18;53.65
23223;BME280;11780;13.904;100.620;2023-03-14T04:31:45;101269.16;;;30.19;53.62
23223;BME280;11780;13.904;100.620;2023-03-14T04:34:18;101262.00;;;30.18;52.97
23223;BME280;11780;13.904;100.620;2023-03-14T04:36:52;101260.06;;;30.18;53.04
23223;BME280;11780;13.904;100.620;2023-03-14T04:39:33;101250.34;;;30.21;53.00
23223;BME280;11780;13.904;100.620;2023-03-14T04:42:21;101245.94;;;30.20;53.59
23223;BME280;11780;13.904;100.620;2023-03-14T04:45:09;101245.63;;;30.21;53.33
23223;BME280;11780;13.904;100.620;2023-03-14T04:47:57;101229.41;;;30.20;53.44
23223;BME280;11780;13.904;100.620;2023-03-14T04:50:29;101221.63;;;30.22;52.82
23223;BME280;11780;13.904;100.620;2023-03-14T04:52:59;101220.00;;;30.21;53.45
23223;BME280;11780;13.904;100.620;2023-03-14T04:55:31;101224.91;;;30.24;53.49
23223;BME280;11780;13.904;100.620;2023-03-14T04:58:02;101206.72;;;30.23;53.20
23223;BME280;11780;13.904;100.620;2023-03-14T05:00:33;101204.47;;;30.25;53.61
23223;BME280;11780;13.904;100.620;2023-03-14T05:03:41;101191.19;;;30.27;53.30
23223;BME280;11780;13.904;100.620;2023-03-14T05:06:43;101192.50;;;30.30;53.26
23223;BME280;11780;13.904;100.620;2023-03-14T05:09:34;101181.47;;;30.30;53.37
23223;BME280;11780;13.904;100.620;2023-03-14T05:12:39;101172.84;;;30.31;52.93
23223;BME280;11780;13.904;100.620;2023-03-14T05:15:32;101168.97;;;30.32;53.35
23223;BME280;11780;13.904;100.620;2023-03-14T05:18:20;101154.38;;;30.32;53.21
23223;BME280;11780;13.904;100.620;2023-03-14T05:21:23;101153.25;;;30.33;53.05
23223;BME280;11780;13.904;100.620;2023-03-14T05:24:22;101149.34;;;30.34;53.10
23223;BME280;11780;13.904;100.620;2023-03-14T05:27:10;101158.44;;;30.34;52.96
23223;BME280;11780;13.904;100.620;2023-03-14T05:29:59;101143.50;;;30.35;52.88
23223;BME280;11780;13.904;100.620;2023-03-14T05:32:46;101133.59;;;30.34;53.11
23223;BME280;11780;13.904;100.620;2023-03-14T05:35:33;101130.56;;;30.36;53.05
23223;BME280;11780;13.904;100.620;2023-03-14T05:38:21;101126.34;;;30.38;53.02
23223;BME280;11780;13.904;100.620;2023-03-14T05:41:09;101121.63;;;30.39;53.35
23223;BME280;11780;13.904;100.620;2023-03-14T05:44:18;101124.72;;;30.37;53.28
23223;BME280;11780;13.904;100.620;2023-03-14T05:47:07;101122.13;;;30.41;52.77
23223;BME280;11780;13.904;100.620;2023-03-14T05:49:55;101108.03;;;30.43;52.97
23223;BME280;11780;13.904;100.620;2023-03-14T05:52:58;101099.44;;;30.44;52.99
23223;BME280;11780;13.904;100.620;2023-03-14T05:55:46;101091.97;;;30.45;52.73
23223;BME280;11780;13.904;100.620;2023-03-14T05:58:22;101087.25;;;30.45;53.04
23223;BME280;11780;13.904;100.620;2023-03-14T06:01:09;101076.22;;;30.45;52.93
23223;BME280;11780;13.904;100.620;2023-03-14T06:03:58;101079.00;;;30.45;52.71
23223;BME280;11780;13.904;100.620;2023-03-14T06:06:28;101074.28;;;30.46;52.89
23223;BME280;11780;13.904;100.620;2023-03-14T06:09:24;101067.63;;;30.47;52.73
23223;BME280;11780;13.904;100.620;2023-03-14T06:11:57;101057.41;;;30.47;53.05
23223;BME280;11780;13.904;100.620;2023-03-14T06:14:33;101055.97;;;30.50;52.70
23223;BME280;11780;13.904;100.620;2023-03-14T06:17:03;101043.28;;;30.49;52.46
23223;BME280;11780;13.904;100.620;2023-03-14T06:19:41;101041.66;;;30.48;53.30
23223;BME280;11780;13.904;100.620;2023-03-14T06:22:12;101032.75;;;30.51;52.54
23223;BME280;11780;13.904;100.620;2023-03-14T06:24:43;101032.75;;;30.51;52.25
23223;BME280;11780;13.904;100.620;2023-03-14T06:27:16;101030.50;;;30.53;51.94
23223;BME280;11780;13.904;100.620;2023-03-14T06:30:05;101028.25;;;30.55;52.01
23223;BME280;11780;13.904;100.620;2023-03-14T06:32:36;101020.00;;;30.55;52.45
23223;BME280;11780;13.904;100.620;2023-03-14T06:35:10;101013.63;;;30.55;52.76
23223;BME280;11780;13.904;100.620;2023-03-14T06:37:42;101006.69;;;30.57;52.19
23223;BME280;11780;13.904;100.620;2023-03-14T06:40:30;101013.84;;;30.58;52.46
23223;BME280;11780;13.904;100.620;2023-03-14T06:43:11;100995.66;;;30.57;52.83
23223;BME280;11780;13.904;100.620;2023-03-14T06:45:57;100995.66;;;30.57;52.86
23223;BME280;11780;13.904;100.620;2023-03-14T06:48:45;100989.00;;;30.58;52.61
23223;BME280;11780;13.904;100.620;2023-03-14T06:51:33;100984.59;;;30.57;52.48
23223;BME280;11780;13.904;100.620;2023-03-14T06:54:06;100982.66;;;30.58;52.96
23223;BME280;11780;13.904;100.620;2023-03-14T06:56:37;100968.84;;;30.58;52.59
23223;BME280;11780;13.904;100.620;2023-03-14T06:59:09;100970.47;;;30.59;52.40
23223;BME280;11780;13.904;100.620;2023-03-14T07:01:41;100962.19;;;30.59;52.33
23223;BME280;11780;13.904;100.620;2023-03-14T07:04:11;100957.97;;;30.61;51.91
23223;BME280;11780;13.904;100.620;2023-03-14T07:06:57;100948.56;;;30.62;52.60
23223;BME280;11780;13.904;100.620;2023-03-14T07:09:45;100944.66;;;30.63;52.24
23223;BME280;11780;13.904;100.620;2023-03-14T07:12:16;100941.59;;;30.65;52.18
23223;BME280;11780;13.904;100.620;2023-03-14T07:15:05;100939.16;;;30.63;52.42
23223;BME280;11780;13.904;100.620;2023-03-14T07:17:50;100936.09;;;30.65;51.96
23223;BME280;11780;13.904;100.620;2023-03-14T07:20:38;100927.47;;;30.66;52.25
23223;BME280;11780;13.904;100.620;2023-03-14T07:23:27;100909.44;;;30.69;52.31
23223;BME280;11780;13.904;100.620;2023-03-14T07:26:15;100910.28;;;30.70;51.92
23223;BME280;11780;13.904;100.620;2023-03-14T07:29:03;100908.00;;;30.72;52.04
23223;BME280;11780;13.904;100.620;2023-03-14T07:31:33;100900.88;;;30.71;52.01
23223;BME280;11780;13.904;100.620;2023-03-14T07:34:04;100894.50;;;30.70;52.15
23223;BME280;11780;13.904;100.620;2023-03-14T07:36:38;100887.34;;;30.69;52.41
23223;BME280;11780;13.904;100.620;2023-03-14T07:39:27;100887.84;;;30.71;51.58
23223;BME280;11780;13.904;100.620;2023-03-14T07:42:04;100884.28;;;30.71;52.30
23223;BME280;11780;13.904;100.620;2023-03-14T07:45:10;100871.63;;;30.70;52.07
23223;BME280;11780;13.904;100.620;2023-03-14T07:47:58;100881.19;;;30.72;52.66
23223;BME280;11780;13.904;100.620;2023-03-14T07:50:29;100865.13;;;30.74;52.50
23223;BME280;11780;13.904;100.620;2023-03-14T07:53:18;100873.09;;;30.76;52.44
23223;BME280;11780;13.904;100.620;2023-03-14T07:56:07;100859.28;;;30.76;52.41
23223;BME280;11780;13.904;100.620;2023-03-14T07:58:37;100852.63;;;30.77;52.04
23223;BME280;11780;13.904;100.620;2023-03-14T08:01:07;100849.56;;;30.78;52.57
23223;BME280;11780;13.904;100.620;2023-03-14T08:03:52;100850.69;;;30.77;52.25
23223;BME280;11780;13.904;100.620;2023-03-14T08:06:23;100834.13;;;30.77;51.96
23223;BME280;11780;13.904;100.620;2023-03-14T08:09:11;100842.91;;;30.79;51.99
23223;BME280;11780;13.904;100.620;2023-03-14T08:11:41;100830.53;;;30.77;52.18
23223;BME280;11780;13.904;100.620;2023-03-14T08:14:12;100834.94;;;30.78;52.67
23223;BME280;11780;13.904;100.620;2023-03-14T08:17:00;100823.38;;;30.76;52.21
23223;BME280;11780;13.904;100.620;2023-03-14T08:19:30;100816.72;;;30.77;52.70
23223;BME280;11780;13.904;100.620;2023-03-14T08:22:00;100816.72;;;30.77;52.35
23223;BME280;11780;13.904;100.620;2023-03-14T08:24:32;100826.63;;;30.78;52.14
23223;BME280;11780;13.904;100.620;2023-03-14T08:27:02;100813.97;;;30.77;52.02
23223;BME280;11780;13.904;100.620;2023-03-14T08:29:34;100815.94;;;30.76;52.13
23223;BME280;11780;13.904;100.620;2023-03-14T08:32:04;100813.66;;;30.78;52.07
23223;BME280;11780;13.904;100.620;2023-03-14T08:34:34;100806.19;;;30.79;52.23
23223;BME280;11780;13.904;100.620;2023-03-14T08:37:05;100808.94;;;30.79;52.51
23223;BME280;11780;13.904;100.620;2023-03-14T08:39:51;100815.28;;;30.79;52.11
23223;BME280;11780;13.904;100.620;2023-03-14T08:42:21;100812.84;;;30.78;52.40
23223;BME280;11780;13.904;100.620;2023-03-14T08:45:12;100802.28;;;30.80;52.36
23223;BME280;11780;13.904;100.620;2023-03-14T08:47:44;100811.41;;;30.80;52.13
23223;BME280;11780;13.904;100.620;2023-03-14T08:50:14;100810.25;;;30.81;52.31
23223;BME280;11780;13.904;100.620;2023-03-14T08:52:45;100806.66;;;30.81;52.31
23223;BME280;11780;13.904;100.620;2023-03-14T08:55:15;100811.41;;;30.80;52.50
23223;BME280;11780;13.904;100.620;2023-03-14T08:57:46;100813.81;;;30.82;52.42
23223;BME280;11780;13.904;100.620;2023-03-14T09:00:16;100808.13;;;30.78;52.28
23223;BME280;11780;13.904;100.620;2023-03-14T09:02:46;100806.19;;;30.79;52.71
23223;BME280;11780;13.904;100.620;2023-03-14T09:05:16;100807.31;;;30.78;53.15
23223;BME280;11780;13.904;100.620;2023-03-14T09:07:46;100806.50;;;30.77;53.10
23223;BME280;11780;13.904;100.620;2023-03-14T09:10:35;100801.78;;;30.78;52.92
23223;BME280;11780;13.904;100.620;2023-03-14T09:13:05;100801.00;;;30.77;52.92
23223;BME280;11780;13.904;100.620;2023-03-14T09:15:35;100797.88;;;30.79;52.87
23223;BME280;11780;13.904;100.620;2023-03-14T09:18:05;100804.75;;;30.81;53.09
23223;BME280;11780;13.904;100.620;2023-03-14T09:20:53;100804.75;;;30.81;52.85
23223;BME280;11780;13.904;100.620;2023-03-14T09:23:24;100808.31;;;30.82;52.70
23223;BME280;11780;13.904;100.620;2023-03-14T09:25:55;100795.00;;;30.84;52.89
23223;BME280;11780;13.904;100.620;2023-03-14T09:28:26;100796.91;;;30.83;52.90
23223;BME280;11780;13.904;100.620;2023-03-14T09:30:56;100809.44;;;30.81;53.15
23223;BME280;11780;13.904;100.620;2023-03-14T09:33:26;100794.00;;;30.80;52.72
23223;BME280;11780;13.904;100.620;2023-03-14T09:35:58;100800.84;;;30.82;53.10
23223;BME280;11780;13.904;100.620;2023-03-14T09:38:29;100796.13;;;30.83;52.63
23223;BME280;11780;13.904;100.620;2023-03-14T09:41:02;100793.84;;;30.85;53.04
23223;BME280;11780;13.904;100.620;2023-03-14T09:43:35;100800.50;;;30.84;53.01
23223;BME280;11780;13.904;100.620;2023-03-14T09:46:07;100794.50;;;30.82;52.36
23223;BME280;11780;13.904;100.620;2023-03-14T09:48:39;100795.78;;;30.84;52.90
23223;BME280;11780;13.904;100.620;2023-03-14T09:51:15;100801.16;;;30.81;52.70
23223;BME280;11780;13.904;100.620;2023-03-14T09:53:48;100791.22;;;30.80;53.13
23223;BME280;11780;13.904;100.620;2023-03-14T09:56:25;100785.41;;;30.81;52.34
23223;BME280;11780;13.904;100.620;2023-03-14T09:59:00;100788.63;;;30.83;52.48
23223;BME280;11780;13.904;100.620;2023-03-14T10:01:33;100797.09;;;30.87;52.20
23223;BME280;11780;13.904;100.620;2023-03-14T10:04:10;100801.00;;;30.86;52.24
23223;BME280;11780;13.904;100.620;2023-03-14T10:06:43;100791.41;;;30.83;53.07
23223;BME280;11780;13.904;100.620;2023-03-14T10:09:21;100799.38;;;30.85;52.70
23223;BME280;11780;13.904;100.620;2023-03-14T10:11:56;100799.03;;;30.87;52.73
23223;BME280;11780;13.904;100.620;2023-03-14T10:14:37;100804.06;;;30.84;53.12
23223;BME280;11780;13.904;100.620;2023-03-14T10:17:14;100819.50;;;30.86;53.02
23223;BME280;11780;13.904;100.620;2023-03-14T10:19:55;100817.09;;;30.84;52.86
23223;BME280;11780;13.904;100.620;2023-03-14T10:22:34;100819.34;;;30.82;53.01
23223;BME280;11780;13.904;100.620;2023-03-14T10:25:06;100811.91;;;30.82;53.04
23223;BME280;11780;13.904;100.620;2023-03-14T10:27:49;100817.72;;;30.81;52.91
23223;BME280;11780;13.904;100.620;2023-03-14T10:30:55;100816.25;;;30.83;52.68
23223;BME280;11780;13.904;100.620;2023-03-14T10:33:34;100826.50;;;30.83;52.40
23223;BME280;11780;13.904;100.620;2023-03-14T10:36:21;100822.44;;;30.80;52.70
23223;BME280;11780;13.904;100.620;2023-03-14T10:41:53;100834.78;;;30.83;52.20
23223;BME280;11780;13.904;100.620;2023-03-14T10:44:26;100832.34;;;30.81;52.31
23223;BME280;11780;13.904;100.620;2023-03-14T10:47:01;100838.03;;;30.85;52.19
23223;BME280;11780;13.904;100.620;2023-03-14T10:49:36;100834.44;;;30.84;52.24
23223;BME280;11780;13.904;100.620;2023-03-14T10:55:00;100828.28;;;30.88;52.75
23223;BME280;11780;13.904;100.620;2023-03-14T10:57:31;100835.28;;;30.85;53.00
23223;BME280;11780;13.904;100.620;2023-03-14T11:00:02;100840.81;;;30.85;52.85
23223;BME280;11780;13.904;100.620;2023-03-14T11:05:37;100838.34;;;30.83;53.17
23223;BME280;11780;13.904;100.620;2023-03-14T11:08:31;100836.41;;;30.84;52.87
23223;BME280;11780;13.904;100.620;2023-03-14T11:11:24;100846.31;;;30.85;52.71
23223;BME280;11780;13.904;100.620;2023-03-14T11:19:53;100845.50;;;30.84;53.24
23223;BME280;11780;13.904;100.620;2023-03-14T11:22:29;100849.09;;;30.85;53.39
23223;BME280;11780;13.904;100.620;2023-03-14T11:30:54;100860.13;;;30.85;53.25
23223;BME280;11780;13.904;100.620;2023-03-14T11:34:01;100845.50;;;30.84;53.46
23223;BME280;11780;13.904;100.620;2023-03-14T11:37:01;100852.66;;;30.86;53.24
23223;BME280;11780;13.904;100.620;2023-03-14T11:39:44;100861.75;;;30.86;53.35
23223;BME280;11780;13.904;100.620;2023-03-14T11:42:17;100865.97;;;30.83;53.37
23223;BME280;11780;13.904;100.620;2023-03-14T11:44:49;100865.03;;;30.88;53.52
23223;BME280;11780;13.904;100.620;2023-03-14T11:47:24;100860.63;;;30.87;53.37
23223;BME280;11780;13.904;100.620;2023-03-14T11:50:25;100868.09;;;30.87;53.54
23223;BME280;11780;13.904;100.620;2023-03-14T11:53:03;100870.34;;;30.84;53.49
23223;BME280;11780;13.904;100.620;2023-03-14T11:55:37;100877.84;;;30.84;54.00
23223;BME280;11780;13.904;100.620;2023-03-14T12:00:47;100886.91;;;30.84;53.90
23223;BME280;11780;13.904;100.620;2023-03-14T12:03:28;100885.50;;;30.87;53.91
23223;BME280;11780;13.904;100.620;2023-03-14T12:08:56;100888.88;;;30.84;53.85
23223;BME280;11780;13.904;100.620;2023-03-14T12:11:50;100891.31;;;30.86;53.37
23223;BME280;11780;13.904;100.620;2023-03-14T12:14:36;100892.94;;;30.87;52.77
23223;BME280;11780;13.904;100.620;2023-03-14T12:19:41;100887.41;;;30.87;52.98
23223;BME280;11780;13.904;100.620;2023-03-14T12:22:28;100897.34;;;30.88;53.00
23223;BME280;11780;13.904;100.620;2023-03-14T12:35:42;100927.06;;;30.82;53.85
23223;BME280;11780;13.904;100.620;2023-03-14T12:38:18;100926.56;;;30.80;54.03
23223;BME280;11780;13.904;100.620;2023-03-14T12:43:56;100931.78;;;30.81;53.84
23223;BME280;11780;13.904;100.620;2023-03-14T12:49:49;100940.84;;;30.82;53.72
23223;BME280;11780;13.904;100.620;2023-03-14T12:52:30;100944.91;;;30.84;53.79
23223;BME280;11780;13.904;100.620;2023-03-14T13:01:05;100955.34;;;30.88;53.61
23223;BME280;11780;13.904;100.620;2023-03-14T13:03:57;100952.06;;;30.86;54.40
23223;BME280;11780;13.904;100.620;2023-03-14T13:06:49;100953.22;;;30.84;55.02
23223;BME280;11780;13.904;100.620;2023-03-14T13:09:59;100948.81;;;30.83;54.84
23223;BME280;11780;13.904;100.620;2023-03-14T13:57:27;101009.31;;;30.94;56.37
23223;BME280;11780;13.904;100.620;2023-03-14T14:00:17;101007.50;;;30.89;56.79
23223;BME280;11780;13.904;100.620;2023-03-14T14:02:48;101006.56;;;30.94;56.53
23223;BME280;11780;13.904;100.620;2023-03-14T14:05:19;101008.13;;;30.86;56.33
23223;BME280;11780;13.904;100.620;2023-03-14T14:07:50;101015.84;;;30.98;56.38
23223;BME280;11780;13.904;100.620;2023-03-14T14:10:22;101020.19;;;30.90;56.61
23223;BME280;11780;13.904;100.620;2023-03-14T14:12:56;101022.50;;;30.97;56.12
23223;BME280;11780;13.904;100.620;2023-03-14T14:15:31;101024.94;;;30.98;56.39
23223;BME280;11780;13.904;100.620;2023-03-14T14:18:07;101027.06;;;31.02;56.92
23223;BME280;11780;13.904;100.620;2023-03-14T14:20:53;101026.38;;;30.96;56.33
23223;BME280;11780;13.904;100.620;2023-03-14T14:23:26;101027.69;;;30.98;56.49
23223;BME280;11780;13.904;100.620;2023-03-14T14:25:59;101032.88;;;31.00;56.69
23223;BME280;11780;13.904;100.620;2023-03-14T14:28:32;101032.25;;;31.03;56.97
23223;BME280;11780;13.904;100.620;2023-03-14T14:33:46;101029.31;;;30.99;56.80
23223;BME280;11780;13.904;100.620;2023-03-14T14:36:39;101027.41;;;31.09;56.79
23223;BME280;11780;13.904;100.620;2023-03-14T14:41:49;101032.94;;;31.09;56.88
23223;BME280;11780;13.904;100.620;2023-03-14T14:44:32;101035.69;;;31.09;56.57
23223;BME280;11780;13.904;100.620;2023-03-14T14:47:04;101035.84;;;31.04;56.76
23223;BME280;11780;13.904;100.620;2023-03-14T14:49:34;101036.78;;;30.99;57.31
23223;BME280;11780;13.904;100.620;2023-03-14T14:57:22;101043.09;;;30.91;56.78
23223;BME280;11780;13.904;100.620;2023-03-14T15:00:03;101041.47;;;30.90;57.70
23223;BME280;11780;13.904;100.620;2023-03-14T15:02:48;101047.53;;;31.01;57.35
23223;BME280;11780;13.904;100.620;2023-03-14T15:05:27;101049.78;;;30.98;57.13
23223;BME280;11780;13.904;100.620;2023-03-14T15:07:59;101052.78;;;31.11;57.31
23223;BME280;11780;13.904;100.620;2023-03-14T15:10:29;101051.63;;;31.12;57.78
23223;BME280;11780;13.904;100.620;2023-03-14T15:12:59;101067.72;;;31.10;57.90
23223;BME280;11780;13.904;100.620;2023-03-14T15:15:29;101066.59;;;31.11;57.71
23223;BME280;11780;13.904;100.620;2023-03-14T15:18:00;101068.06;;;31.08;58.38